createdAt,value
2022-09-07T00:00:09.227Z,7.68
2022-09-07T00:02:37.103Z,5.88
2022-09-07T00:05:05.137Z,7.05
2022-09-07T00:07:32.854Z,6.07
2022-09-07T00:10:00.566Z,7.68
2022-09-07T00:12:28.378Z,8.82
2022-09-07T00:14:57.512Z,5.72
2022-09-07T00:17:25.319Z,9.10
2022-09-07T00:19:53.197Z,6.93
2022-09-07T00:22:20.953Z,6.57
2022-09-07T00:24:48.770Z,6.25
2022-09-07T00:27:16.599Z,10.15
2022-09-07T00:29:44.701Z,8.55
2022-09-07T00:32:14.428Z,8.10
2022-09-07T00:34:42.221Z,7.20
2022-09-07T00:37:09.965Z,9.65
2022-09-07T00:39:39.366Z,8.25
2022-09-07T00:42:07.216Z,10.90
2022-09-07T00:44:55.862Z,11.32
2022-09-07T00:47:26.243Z,9.45
2022-09-07T00:49:56.140Z,6.30
2022-09-07T00:52:24.866Z,13.02
2022-09-07T00:54:57.079Z,13.25
2022-09-07T00:57:24.985Z,10.45
2022-09-07T00:59:57.664Z,11.60
2022-09-07T01:02:27.299Z,11.60
2022-09-07T01:05:07.550Z,12.68
2022-09-07T01:07:37.615Z,10.60
2022-09-07T01:10:06.116Z,7.80
2022-09-07T01:12:33.902Z,8.38
2022-09-07T01:15:02.019Z,9.48
2022-09-07T01:17:37.685Z,7.90
2022-09-07T01:20:30.027Z,7.78
2022-09-07T01:23:12.596Z,9.40
2022-09-07T01:25:43.906Z,9.15
2022-09-07T01:28:16.979Z,8.48
2022-09-07T01:30:49.940Z,8.38
2022-09-07T01:33:34.284Z,11.68
2022-09-07T01:36:08.153Z,9.30
2022-09-07T01:38:39.023Z,11.70
2022-09-07T01:41:10.482Z,13.48
2022-09-07T01:43:42.914Z,12.00
2022-09-07T01:46:15.749Z,7.90
2022-09-07T01:48:44.289Z,10.15
2022-09-07T01:51:12.388Z,8.35
2022-09-07T01:53:41.893Z,7.68
2022-09-07T01:56:11.455Z,9.23
2022-09-07T01:58:42.027Z,11.40
2022-09-07T02:01:12.118Z,10.00
2022-09-07T02:03:42.546Z,8.63
2022-09-07T02:06:14.135Z,7.80
2022-09-07T02:08:43.090Z,7.82
2022-09-07T02:11:13.585Z,7.38
2022-09-07T02:13:43.480Z,7.80
2022-09-07T02:16:13.173Z,6.93
2022-09-07T02:18:45.898Z,8.23
2022-09-07T02:21:14.728Z,8.43
2022-09-07T02:23:45.580Z,7.85
2022-09-07T02:26:15.094Z,9.43
2022-09-07T02:28:44.240Z,11.05
2022-09-07T02:31:12.080Z,12.85
2022-09-07T02:33:40.074Z,10.43
2022-09-07T02:36:08.333Z,7.70
2022-09-07T02:38:36.302Z,11.02
2022-09-07T02:41:04.344Z,10.45
2022-09-07T02:43:33.059Z,11.90
2022-09-07T02:46:19.261Z,8.35
2022-09-07T02:48:57.696Z,11.85
2022-09-07T02:51:29.170Z,15.10
2022-09-07T02:54:04.210Z,11.55
2022-09-07T02:56:39.219Z,8.23
2022-09-07T02:59:12.264Z,13.45
2022-09-07T03:01:46.958Z,7.90
2022-09-07T03:04:16.707Z,9.35
2022-09-07T03:06:47.172Z,9.75
2022-09-07T03:09:17.739Z,7.88
2022-09-07T03:11:45.832Z,12.48
2022-09-07T03:14:15.024Z,9.98
2022-09-07T03:16:44.233Z,9.05
2022-09-07T03:19:12.046Z,10.18
2022-09-07T03:21:39.828Z,8.43
2022-09-07T03:24:07.931Z,12.63
2022-09-07T03:26:37.160Z,11.52
2022-09-07T03:29:04.910Z,11.13
2022-09-07T03:31:33.201Z,10.40
2022-09-07T03:34:02.363Z,9.48
2022-09-07T03:36:30.329Z,9.57
2022-09-07T03:38:58.736Z,7.80
2022-09-07T03:41:27.170Z,10.25
2022-09-07T03:43:55.402Z,10.15
2022-09-07T03:46:23.529Z,10.50
2022-09-07T03:48:51.441Z,10.65
2022-09-07T03:51:20.673Z,8.48
2022-09-07T03:53:48.564Z,15.05
2022-09-07T03:56:18.300Z,8.85
2022-09-07T03:58:46.553Z,8.90
2022-09-07T04:01:16.415Z,10.20
2022-09-07T04:03:44.397Z,9.13
2022-09-07T04:06:12.940Z,9.07
2022-09-07T04:08:42.544Z,10.05
2022-09-07T04:11:12.996Z,13.68
2022-09-07T04:13:41.002Z,9.50
2022-09-07T04:16:12.950Z,9.38
2022-09-07T04:18:40.796Z,17.23
2022-09-07T04:21:08.647Z,20.77
2022-09-07T04:23:38.009Z,18.10
2022-09-07T04:26:07.329Z,12.48
2022-09-07T04:28:35.064Z,10.75
2022-09-07T04:31:03.129Z,9.50
2022-09-07T04:33:32.139Z,11.27
2022-09-07T04:36:00.357Z,12.63
2022-09-07T04:38:28.787Z,12.43
2022-09-07T04:41:00.190Z,11.05
2022-09-07T04:43:29.809Z,10.52
2022-09-07T04:45:57.628Z,9.80
2022-09-07T04:48:25.522Z,8.48
2022-09-07T04:50:53.398Z,11.50
2022-09-07T04:53:21.232Z,12.45
2022-09-07T04:55:48.950Z,11.65
2022-09-07T04:58:16.752Z,9.68
2022-09-07T05:00:48.584Z,11.93
2022-09-07T05:03:16.352Z,12.98
2022-09-07T05:05:45.071Z,14.82
2022-09-07T05:08:15.871Z,11.70
2022-09-07T05:10:51.457Z,12.85
2022-09-07T05:13:19.195Z,9.07
2022-09-07T05:15:48.355Z,14.30
2022-09-07T05:18:16.135Z,13.05
2022-09-07T05:20:44.055Z,9.38
2022-09-07T05:23:11.792Z,11.82
2022-09-07T05:25:43.502Z,11.63
2022-09-07T05:28:12.527Z,8.27
2022-09-07T05:36:19.240Z,18.25
2022-09-07T05:38:47.006Z,14.40
2022-09-07T05:41:15.409Z,12.30
2022-09-07T05:46:31.293Z,11.43
2022-09-07T05:49:03.265Z,11.27
2022-09-07T05:51:31.186Z,14.20
2022-09-07T05:53:59.891Z,8.80
2022-09-07T05:56:29.662Z,10.55
2022-09-07T05:58:57.510Z,13.45
2022-09-07T06:01:25.297Z,13.90
2022-09-07T06:03:53.023Z,11.77
2022-09-07T06:06:22.495Z,9.68
2022-09-07T06:08:51.223Z,14.75
2022-09-07T06:11:20.298Z,8.40
2022-09-07T06:13:48.136Z,7.35
2022-09-07T06:16:16.502Z,8.25
2022-09-07T06:18:45.324Z,7.95
2022-09-07T06:21:13.582Z,8.48
2022-09-07T06:23:43.618Z,9.82
2022-09-07T06:26:11.892Z,28.77
2022-09-07T06:28:40.895Z,13.55
2022-09-07T06:31:09.619Z,7.50
2022-09-07T06:33:37.562Z,7.25
2022-09-07T06:36:06.346Z,9.32
2022-09-07T06:38:35.267Z,8.05
2022-09-07T06:43:52.362Z,9.43
2022-09-07T06:49:07.986Z,10.40
2022-09-07T06:51:35.929Z,6.20
2022-09-07T06:56:55.669Z,10.60
2022-09-07T06:59:23.496Z,11.52
2022-09-07T07:01:51.259Z,11.02
2022-09-07T07:04:19.002Z,7.78
2022-09-07T07:06:46.759Z,10.65
2022-09-07T07:09:14.534Z,8.05
2022-09-07T07:11:43.664Z,7.68
2022-09-07T07:14:15.133Z,8.63
2022-09-07T07:16:43.049Z,9.23
2022-09-07T07:19:10.832Z,10.48
2022-09-07T07:22:03.392Z,16.10
2022-09-07T07:24:26.474Z,7.10
2022-09-07T07:26:54.205Z,7.55
2022-09-07T07:29:25.139Z,10.20
2022-09-07T07:31:55.978Z,7.85
2022-09-07T07:34:23.841Z,9.00
2022-09-07T07:36:51.609Z,10.68
2022-09-07T07:42:07.091Z,8.63
2022-09-07T07:44:36.227Z,7.70
2022-09-07T07:47:04.195Z,14.30
2022-09-07T07:49:32.040Z,8.48
2022-09-07T07:54:48.124Z,7.30
2022-09-07T07:57:16.918Z,7.63
2022-09-07T07:59:46.327Z,9.43
2022-09-07T08:02:15.936Z,12.75
2022-09-07T08:04:43.887Z,12.20
2022-09-07T08:07:12.284Z,10.75
2022-09-07T08:09:40.772Z,11.07
2022-09-07T08:12:09.240Z,8.32
2022-09-07T08:14:41.178Z,7.78
2022-09-07T08:17:11.056Z,10.82
2022-09-07T08:19:38.911Z,9.80
2022-09-07T08:22:06.880Z,11.13
2022-09-07T08:24:34.770Z,9.43
2022-09-07T08:27:02.475Z,10.10
2022-09-07T08:29:33.757Z,7.82
2022-09-07T08:32:03.673Z,11.18
2022-09-07T08:34:32.879Z,10.50
2022-09-07T08:37:00.643Z,15.07
2022-09-07T08:39:28.415Z,9.63
2022-09-07T08:42:00.797Z,10.95
2022-09-07T08:44:32.861Z,9.68
2022-09-07T08:47:03.577Z,6.45
2022-09-07T08:49:34.110Z,8.07
2022-09-07T08:52:03.058Z,13.77
2022-09-07T08:54:30.889Z,8.55
2022-09-07T08:59:50.176Z,12.73
2022-09-07T09:06:11.117Z,7.43
2022-09-07T09:06:11.223Z,10.95
2022-09-07T09:08:11.274Z,11.68
2022-09-07T09:10:44.724Z,6.32
2022-09-07T09:13:16.444Z,13.40
2022-09-07T09:15:53.834Z,8.32
2022-09-07T09:18:28.179Z,9.52
2022-09-07T09:20:58.187Z,8.65
2022-09-07T09:23:26.972Z,6.00
2022-09-07T09:25:55.255Z,8.20
2022-09-07T09:28:24.680Z,14.02
2022-09-07T09:30:54.706Z,7.28
2022-09-07T09:33:23.765Z,5.45
2022-09-07T09:35:52.568Z,11.40
2022-09-07T09:38:32.426Z,11.30
2022-09-07T09:41:01.611Z,7.15
2022-09-07T09:43:33.637Z,6.50
2022-09-07T09:46:17.228Z,5.60
2022-09-07T09:48:50.993Z,6.68
2022-09-07T09:54:17.052Z,8.18
2022-09-07T09:56:45.512Z,12.68
2022-09-07T10:05:20.854Z,6.43
2022-09-07T10:07:52.022Z,8.98
2022-09-07T10:10:21.665Z,8.88
2022-09-07T10:12:52.993Z,10.98
2022-09-07T10:15:26.851Z,10.25
2022-09-07T10:17:54.728Z,8.73
2022-09-07T10:20:31.157Z,6.47
2022-09-07T10:22:59.601Z,5.85
2022-09-07T10:25:29.914Z,12.15
2022-09-07T10:28:05.709Z,8.45
2022-09-07T10:30:37.222Z,8.57
2022-09-07T10:33:06.649Z,5.20
2022-09-07T10:35:35.629Z,6.95
2022-09-07T10:38:07.243Z,9.18
2022-09-07T10:40:39.120Z,9.57
2022-09-07T10:43:22.965Z,6.25
2022-09-07T10:46:05.719Z,8.88
2022-09-07T10:48:35.356Z,5.25
2022-09-07T10:51:13.492Z,5.20
2022-09-07T10:53:44.187Z,7.10
2022-09-07T10:56:16.228Z,12.32
2022-09-07T10:59:01.804Z,7.57
2022-09-07T11:01:37.377Z,7.45
2022-09-07T11:04:13.930Z,8.85
2022-09-07T11:06:42.507Z,6.53
2022-09-07T11:09:20.247Z,11.88
2022-09-07T11:12:03.048Z,15.23
2022-09-07T11:14:33.647Z,9.93
2022-09-07T11:17:03.210Z,9.38
2022-09-07T11:19:35.297Z,6.80
2022-09-07T11:22:07.542Z,9.18
2022-09-07T11:24:38.850Z,11.82
2022-09-07T11:27:11.352Z,6.38
2022-09-07T11:29:44.867Z,6.00
2022-09-07T11:32:14.137Z,9.18
2022-09-07T11:34:45.190Z,6.70
2022-09-07T11:37:17.997Z,11.70
2022-09-07T11:39:47.729Z,9.75
2022-09-07T11:45:13.621Z,7.38
2022-09-07T11:47:44.148Z,7.00
2022-09-07T11:50:15.593Z,11.73
2022-09-07T11:52:44.197Z,9.93
2022-09-07T11:55:12.788Z,11.38
2022-09-07T11:57:49.687Z,9.43
2022-09-07T12:00:21.063Z,9.95
2022-09-07T12:03:03.948Z,10.90
2022-09-07T12:05:41.634Z,18.60
2022-09-07T12:08:16.374Z,13.25
2022-09-07T12:10:51.911Z,11.07
2022-09-07T12:13:32.348Z,17.30
2022-09-07T12:16:03.053Z,14.15
2022-09-07T12:18:43.581Z,10.93
2022-09-07T12:21:26.405Z,10.65
2022-09-07T12:23:54.248Z,16.73
2022-09-07T12:26:40.874Z,12.68
2022-09-07T12:29:23.572Z,13.57
2022-09-07T12:32:07.653Z,11.60
2022-09-07T12:34:54.666Z,11.20
2022-09-07T12:37:41.996Z,9.80
2022-09-07T12:40:28.364Z,11.20
2022-09-07T12:43:10.992Z,11.30
2022-09-07T12:45:50.205Z,12.10
2022-09-07T12:48:27.204Z,12.75
2022-09-07T12:50:56.900Z,13.38
2022-09-07T12:53:29.786Z,12.23
2022-09-07T12:56:21.980Z,11.20
2022-09-07T12:58:58.563Z,12.48
2022-09-07T13:01:33.348Z,10.43
2022-09-07T13:04:09.572Z,11.63
2022-09-07T13:07:06.328Z,17.80
2022-09-07T13:09:34.703Z,12.60
2022-09-07T13:12:04.771Z,12.65
2022-09-07T13:14:35.281Z,10.45
2022-09-07T13:17:21.511Z,11.50
2022-09-07T13:20:07.162Z,9.25
2022-09-07T13:22:53.593Z,9.55
2022-09-07T13:25:45.632Z,15.55
2022-09-07T13:28:17.399Z,9.20
2022-09-07T13:30:53.468Z,10.02
2022-09-07T13:33:39.424Z,9.82
2022-09-07T13:36:16.717Z,8.20
2022-09-07T13:38:45.141Z,11.85
2022-09-07T13:41:14.699Z,12.38
2022-09-07T13:43:47.040Z,8.38
2022-09-07T13:46:19.266Z,12.48
2022-09-07T13:48:50.198Z,8.55
2022-09-07T13:51:21.350Z,8.40
2022-09-07T13:53:57.354Z,9.40
2022-09-07T13:56:33.056Z,11.00
2022-09-07T13:59:00.890Z,6.43
2022-09-07T14:01:30.026Z,6.63
2022-09-07T14:03:59.567Z,10.20
2022-09-07T14:06:31.241Z,9.48
2022-09-07T14:08:59.993Z,6.40
2022-09-07T14:11:28.943Z,11.23
2022-09-07T14:14:16.558Z,6.65
2022-09-07T14:19:13.312Z,6.65
2022-09-07T14:21:42.464Z,8.85
2022-09-07T14:24:19.666Z,7.28
2022-09-07T14:26:48.358Z,6.60
2022-09-07T14:29:23.615Z,9.05
2022-09-07T14:31:51.868Z,9.07
2022-09-07T14:34:21.721Z,7.40
2022-09-07T14:36:51.777Z,6.20
2022-09-07T14:39:20.873Z,6.97
2022-09-07T14:41:49.104Z,6.78
2022-09-07T14:44:30.165Z,7.82
2022-09-07T14:46:59.257Z,6.35
2022-09-07T14:49:27.355Z,6.88
2022-09-07T14:52:00.896Z,11.15
2022-09-07T14:54:30.855Z,6.05
2022-09-07T14:57:01.100Z,8.30
2022-09-07T14:59:35.651Z,8.45
2022-09-07T15:02:24.001Z,7.95
2022-09-07T15:05:11.889Z,9.35
2022-09-07T15:07:41.791Z,6.35
2022-09-07T15:10:16.337Z,9.05
2022-09-07T15:12:44.413Z,6.72
2022-09-07T15:15:13.464Z,15.32
2022-09-07T15:17:44.735Z,9.50
2022-09-07T15:20:31.130Z,14.05
2022-09-07T15:23:00.703Z,9.02
2022-09-07T15:25:28.838Z,9.07
2022-09-07T15:27:56.622Z,8.07
2022-09-07T15:30:25.251Z,12.30
2022-09-07T15:32:53.255Z,11.27
2022-09-07T15:35:21.120Z,10.80
2022-09-07T15:38:05.419Z,7.70
2022-09-07T15:40:51.301Z,7.47
2022-09-07T15:43:28.542Z,8.07
2022-09-07T15:45:56.774Z,8.70
2022-09-07T15:48:26.052Z,10.35
2022-09-07T15:51:01.487Z,11.77
2022-09-07T15:56:20.153Z,10.27
2022-09-07T15:58:52.611Z,11.68
2022-09-07T16:04:08.263Z,10.43
2022-09-07T16:06:36.135Z,10.05
2022-09-07T16:09:06.103Z,10.63
2022-09-07T16:11:35.669Z,10.13
2022-09-07T16:14:03.951Z,11.80
2022-09-07T16:19:20.827Z,9.68
2022-09-07T16:21:49.367Z,12.57
2022-09-07T16:24:17.470Z,11.85
2022-09-07T16:26:46.623Z,12.35
2022-09-07T16:29:14.356Z,13.02
2022-09-07T16:34:30.297Z,10.20
2022-09-07T16:36:58.063Z,15.77
2022-09-07T16:39:26.160Z,18.50
2022-09-07T16:41:55.693Z,11.43
2022-09-07T16:44:23.460Z,15.38
2022-09-07T16:46:51.125Z,12.98
2022-09-07T16:49:19.757Z,10.63
2022-09-07T16:51:47.495Z,13.77
2022-09-07T16:54:15.886Z,14.18
2022-09-07T16:56:43.691Z,12.25
2022-09-07T16:59:16.055Z,16.42
2022-09-07T17:01:44.028Z,15.15
2022-09-07T17:04:12.409Z,11.77
2022-09-07T17:06:41.416Z,11.50
2022-09-07T17:09:09.270Z,13.35
2022-09-07T17:11:37.940Z,22.30
2022-09-07T17:14:06.698Z,11.98
2022-09-07T17:16:36.891Z,15.80
2022-09-07T17:21:53.849Z,19.30
2022-09-07T17:24:21.690Z,12.52
2022-09-07T17:26:49.773Z,13.77
2022-09-07T17:29:17.705Z,16.27
2022-09-07T17:34:34.665Z,18.20
2022-09-07T17:37:02.340Z,14.55
2022-09-07T17:39:30.512Z,16.45
2022-09-07T17:41:58.353Z,18.90
2022-09-07T17:44:30.788Z,12.30
2022-09-07T17:47:02.580Z,16.73
2022-09-07T17:49:30.560Z,12.15
2022-09-07T17:51:59.145Z,15.18
2022-09-07T17:54:27.150Z,17.90
2022-09-07T17:56:55.583Z,17.52
2022-09-07T18:02:13.817Z,15.00
2022-09-07T18:04:41.815Z,20.55
2022-09-07T18:07:09.639Z,18.50
2022-09-07T18:09:37.480Z,20.27
2022-09-07T18:12:05.474Z,19.92
2022-09-07T18:14:33.198Z,17.85
2022-09-07T18:17:01.217Z,20.42
2022-09-07T18:19:30.408Z,24.58
2022-09-07T18:21:58.190Z,18.67
2022-09-07T18:24:26.057Z,16.85
2022-09-07T18:26:54.402Z,16.77
2022-09-07T18:29:34.360Z,19.48
2022-09-07T18:32:04.788Z,27.73
2022-09-07T18:34:36.953Z,14.57
2022-09-07T18:37:07.297Z,19.98
2022-09-07T18:39:35.705Z,26.50
2022-09-07T18:42:03.751Z,25.30
2022-09-07T18:47:27.681Z,27.80
2022-09-07T18:49:57.589Z,29.27
2022-09-07T18:55:13.042Z,24.52
2022-09-07T18:57:40.751Z,19.45
2022-09-07T19:00:09.853Z,19.20
2022-09-07T19:02:37.736Z,22.33
2022-09-07T19:07:55.291Z,32.88
2022-09-07T19:10:23.153Z,31.35
2022-09-07T19:12:50.959Z,21.40
2022-09-07T19:15:20.536Z,19.15
2022-09-07T19:17:48.527Z,21.92
2022-09-07T19:20:17.842Z,23.83
2022-09-07T19:22:45.879Z,22.83
2022-09-07T19:25:13.627Z,20.55
2022-09-07T19:27:41.407Z,18.80
2022-09-07T19:30:09.982Z,22.05
2022-09-07T19:32:37.960Z,18.85
2022-09-07T19:35:06.019Z,21.73
2022-09-07T19:37:35.161Z,24.70
2022-09-07T19:40:03.230Z,39.90
2022-09-07T19:42:31.888Z,33.42
2022-09-07T19:44:59.671Z,27.10
2022-09-07T19:47:27.496Z,26.73
2022-09-07T19:49:55.220Z,29.67
2022-09-07T19:52:23.389Z,27.52
2022-09-07T19:54:52.479Z,20.80
2022-09-07T19:57:20.242Z,22.02
2022-09-07T19:59:47.955Z,30.25
2022-09-07T20:02:15.913Z,30.48
2022-09-07T20:04:43.791Z,28.30
2022-09-07T20:07:12.591Z,30.40
2022-09-07T20:09:40.324Z,23.55
2022-09-07T20:12:09.943Z,27.10
2022-09-07T20:14:37.910Z,25.52
2022-09-07T20:17:05.590Z,28.17
2022-09-07T20:19:33.429Z,26.85
2022-09-07T20:22:01.537Z,27.83
2022-09-07T20:24:29.290Z,23.08
2022-09-07T20:26:57.293Z,27.35
2022-09-07T20:29:28.250Z,26.10
2022-09-07T20:31:57.126Z,37.03
2022-09-07T20:34:24.915Z,31.35
2022-09-07T20:36:53.000Z,29.10
2022-09-07T20:39:21.115Z,28.92
2022-09-07T20:41:48.853Z,27.55
2022-09-07T20:44:16.808Z,23.17
2022-09-07T20:46:45.963Z,23.63
2022-09-07T20:49:13.737Z,23.55
2022-09-07T20:51:41.449Z,19.75
2022-09-07T20:54:10.204Z,23.13
2022-09-07T20:56:37.919Z,29.35
2022-09-07T20:59:05.639Z,26.27
2022-09-07T21:01:35.184Z,25.58
2022-09-07T21:04:06.125Z,22.70
2022-09-07T21:06:34.115Z,26.60
2022-09-07T21:09:02.214Z,25.13
2022-09-07T21:11:31.196Z,23.88
2022-09-07T21:14:00.179Z,16.88
2022-09-07T21:16:28.432Z,20.42
2022-09-07T21:18:57.554Z,25.35
2022-09-07T21:21:27.640Z,25.52
2022-09-07T21:23:55.997Z,27.13
2022-09-07T21:26:23.978Z,23.00
2022-09-07T21:28:55.352Z,28.02
2022-09-07T21:31:23.313Z,25.95
2022-09-07T21:33:54.536Z,28.90
2022-09-07T21:36:22.413Z,18.55
2022-09-07T21:38:51.632Z,25.40
2022-09-07T21:41:20.328Z,18.48
2022-09-07T21:43:48.145Z,23.30
2022-09-07T21:46:17.261Z,24.25
2022-09-07T21:48:46.034Z,19.13
2022-09-07T21:51:13.796Z,17.20
2022-09-07T21:53:41.826Z,17.27
2022-09-07T21:56:12.403Z,21.08
2022-09-07T21:58:40.424Z,16.25
2022-09-07T22:01:12.251Z,19.00
2022-09-07T22:03:40.688Z,18.17
2022-09-07T22:06:08.789Z,21.63
2022-09-07T22:08:36.821Z,17.70
2022-09-07T22:11:05.327Z,20.33
2022-09-07T22:13:34.834Z,16.50
2022-09-07T22:16:03.608Z,15.77
2022-09-07T22:18:31.680Z,20.60
2022-09-07T22:21:03.576Z,21.80
2022-09-07T22:23:31.489Z,21.02
2022-09-07T22:25:59.295Z,17.17
2022-09-07T22:28:27.296Z,17.45
2022-09-07T22:30:56.641Z,16.45
2022-09-07T22:33:24.398Z,21.88
2022-09-07T22:35:52.125Z,17.42
2022-09-07T22:38:19.821Z,20.33
2022-09-07T22:40:47.559Z,16.30
2022-09-07T22:43:15.238Z,15.68
2022-09-07T22:45:42.972Z,15.13
2022-09-07T22:48:12.089Z,15.25
2022-09-07T22:50:39.874Z,24.58
2022-09-07T22:53:07.635Z,15.30
2022-09-07T22:55:39.065Z,18.48
2022-09-07T22:58:06.785Z,14.95
2022-09-07T23:00:36.446Z,17.02
2022-09-07T23:03:04.996Z,15.27
2022-09-07T23:05:38.203Z,15.25
2022-09-07T23:08:05.909Z,14.00
2022-09-07T23:10:35.095Z,16.63
2022-09-07T23:13:02.829Z,14.98
2022-09-07T23:15:30.691Z,17.83
2022-09-07T23:17:58.440Z,16.15
2022-09-07T23:20:26.620Z,19.90
2022-09-07T23:22:55.657Z,15.35
2022-09-07T23:25:23.400Z,14.93
2022-09-07T23:27:51.096Z,14.55
2022-09-07T23:30:18.973Z,16.23
2022-09-07T23:32:46.781Z,18.98
2022-09-07T23:35:16.637Z,17.80
2022-09-07T23:37:44.614Z,18.95
2022-09-07T23:40:13.758Z,18.25
2022-09-07T23:42:41.474Z,14.68
2022-09-07T23:45:09.783Z,19.58
2022-09-07T23:47:37.471Z,13.57
2022-09-07T23:50:05.600Z,14.93
2022-09-07T23:52:33.515Z,13.82
2022-09-07T23:55:01.201Z,16.23
2022-09-07T23:57:30.330Z,18.73
2022-09-07T23:59:58.162Z,16.38
